sensor_id;sensor_type;location;lat;lon;timestamp;P1;durP1;ratioP1;P2;durP2;ratioP2
54683;SDS011;40582;53.100;6.686;2022-07-01T00:00:37;4.38;;;1.50;;
54683;SDS011;40582;53.100;6.686;2022-07-01T00:03:02;3.97;;;1.38;;
54683;SDS011;40582;53.100;6.686;2022-07-01T00:05:29;7.32;;;1.45;;
54683;SDS011;40582;53.100;6.686;2022-07-01T00:07:55;8.88;;;2.58;;
54683;SDS011;40582;53.100;6.686;2022-07-01T00:10:21;4.43;;;1.50;;
54683;SDS011;40582;53.100;6.686;2022-07-01T00:12:47;8.68;;;1.55;;
54683;SDS011;40582;53.100;6.686;2022-07-01T00:15:13;4.80;;;1.30;;
54683;SDS011;40582;53.100;6.686;2022-07-01T00:17:39;5.88;;;1.42;;
54683;SDS011;40582;53.100;6.686;2022-07-01T00:20:05;5.05;;;1.17;;
54683;SDS011;40582;53.100;6.686;2022-07-01T00:22:33;4.47;;;1.40;;
54683;SDS011;40582;53.100;6.686;2022-07-01T00:24:59;3.75;;;1.08;;
54683;SDS011;40582;53.100;6.686;2022-07-01T00:27:25;3.28;;;1.20;;
54683;SDS011;40582;53.100;6.686;2022-07-01T00:29:51;2.72;;;1.30;;
54683;SDS011;40582;53.100;6.686;2022-07-01T00:32:16;4.72;;;1.42;;
54683;SDS011;40582;53.100;6.686;2022-07-01T00:34:42;3.63;;;1.40;;
54683;SDS011;40582;53.100;6.686;2022-07-01T00:37:08;2.20;;;1.23;;
54683;SDS011;40582;53.100;6.686;2022-07-01T00:39:33;5.57;;;1.40;;
54683;SDS011;40582;53.100;6.686;2022-07-01T00:42:01;2.60;;;1.00;;
54683;SDS011;40582;53.100;6.686;2022-07-01T00:44:28;5.03;;;1.33;;
54683;SDS011;40582;53.100;6.686;2022-07-01T00:46:54;3.85;;;1.25;;
54683;SDS011;40582;53.100;6.686;2022-07-01T00:49:23;5.00;;;1.63;;
54683;SDS011;40582;53.100;6.686;2022-07-01T00:51:50;5.00;;;1.20;;
54683;SDS011;40582;53.100;6.686;2022-07-01T00:54:17;3.17;;;1.27;;
54683;SDS011;40582;53.100;6.686;2022-07-01T00:56:43;4.35;;;1.27;;
54683;SDS011;40582;53.100;6.686;2022-07-01T00:59:09;5.50;;;1.50;;
54683;SDS011;40582;53.100;6.686;2022-07-01T01:01:35;5.68;;;1.50;;
54683;SDS011;40582;53.100;6.686;2022-07-01T01:04:01;2.80;;;1.52;;
54683;SDS011;40582;53.100;6.686;2022-07-01T01:06:27;7.45;;;1.65;;
54683;SDS011;40582;53.100;6.686;2022-07-01T01:08:54;3.15;;;1.20;;
54683;SDS011;40582;53.100;6.686;2022-07-01T01:11:20;4.75;;;1.35;;
54683;SDS011;40582;53.100;6.686;2022-07-01T01:13:46;5.20;;;1.80;;
54683;SDS011;40582;53.100;6.686;2022-07-01T01:16:18;2.53;;;1.17;;
54683;SDS011;40582;53.100;6.686;2022-07-01T01:18:45;3.60;;;1.42;;
54683;SDS011;40582;53.100;6.686;2022-07-01T01:21:11;3.38;;;1.20;;
54683;SDS011;40582;53.100;6.686;2022-07-01T01:23:36;3.45;;;1.23;;
54683;SDS011;40582;53.100;6.686;2022-07-01T01:26:02;5.05;;;1.17;;
54683;SDS011;40582;53.100;6.686;2022-07-01T01:28:28;2.92;;;1.10;;
54683;SDS011;40582;53.100;6.686;2022-07-01T01:30:54;5.47;;;1.60;;
54683;SDS011;40582;53.100;6.686;2022-07-01T01:33:20;1.85;;;1.00;;
54683;SDS011;40582;53.100;6.686;2022-07-01T01:35:46;3.92;;;1.13;;
54683;SDS011;40582;53.100;6.686;2022-07-01T01:38:11;3.65;;;1.00;;
54683;SDS011;40582;53.100;6.686;2022-07-01T01:40:37;2.22;;;0.88;;
54683;SDS011;40582;53.100;6.686;2022-07-01T01:43:03;2.33;;;1.25;;
54683;SDS011;40582;53.100;6.686;2022-07-01T01:45:29;2.20;;;0.90;;
54683;SDS011;40582;53.100;6.686;2022-07-01T01:47:54;2.58;;;1.10;;
54683;SDS011;40582;53.100;6.686;2022-07-01T01:50:20;3.65;;;1.00;;
54683;SDS011;40582;53.100;6.686;2022-07-01T01:52:47;5.40;;;1.08;;
54683;SDS011;40582;53.100;6.686;2022-07-01T01:55:13;2.75;;;0.98;;
54683;SDS011;40582;53.100;6.686;2022-07-01T01:57:39;3.88;;;1.10;;
54683;SDS011;40582;53.100;6.686;2022-07-01T02:00:08;2.83;;;1.15;;
54683;SDS011;40582;53.100;6.686;2022-07-01T02:02:34;3.40;;;1.05;;
54683;SDS011;40582;53.100;6.686;2022-07-01T02:05:02;3.25;;;1.40;;
54683;SDS011;40582;53.100;6.686;2022-07-01T02:07:32;4.47;;;1.35;;
54683;SDS011;40582;53.100;6.686;2022-07-01T02:09:58;1.27;;;1.00;;
54683;SDS011;40582;53.100;6.686;2022-07-01T02:12:30;2.08;;;1.10;;
54683;SDS011;40582;53.100;6.686;2022-07-01T02:14:57;3.47;;;1.02;;
54683;SDS011;40582;53.100;6.686;2022-07-01T02:17:22;1.60;;;1.10;;
54683;SDS011;40582;53.100;6.686;2022-07-01T02:19:49;1.20;;;0.75;;
54683;SDS011;40582;53.100;6.686;2022-07-01T02:22:15;4.03;;;1.30;;
54683;SDS011;40582;53.100;6.686;2022-07-01T02:24:41;4.75;;;1.50;;
54683;SDS011;40582;53.100;6.686;2022-07-01T02:27:06;1.48;;;1.35;;
54683;SDS011;40582;53.100;6.686;2022-07-01T02:29:32;3.72;;;1.40;;
54683;SDS011;40582;53.100;6.686;2022-07-01T02:31:58;1.77;;;1.50;;
54683;SDS011;40582;53.100;6.686;2022-07-01T02:34:23;1.60;;;1.50;;
54683;SDS011;40582;53.100;6.686;2022-07-01T02:36:49;2.75;;;1.50;;
54683;SDS011;40582;53.100;6.686;2022-07-01T02:39:15;6.15;;;1.67;;
54683;SDS011;40582;53.100;6.686;2022-07-01T02:41:40;2.22;;;1.60;;
54683;SDS011;40582;53.100;6.686;2022-07-01T02:44:24;2.42;;;1.50;;
54683;SDS011;40582;53.100;6.686;2022-07-01T02:46:50;1.92;;;1.40;;
54683;SDS011;40582;53.100;6.686;2022-07-01T02:49:16;4.20;;;1.50;;
54683;SDS011;40582;53.100;6.686;2022-07-01T02:51:42;1.88;;;1.50;;
54683;SDS011;40582;53.100;6.686;2022-07-01T02:54:07;6.40;;;1.42;;
54683;SDS011;40582;53.100;6.686;2022-07-01T02:56:33;2.42;;;1.63;;
54683;SDS011;40582;53.100;6.686;2022-07-01T02:58:58;4.32;;;1.65;;
54683;SDS011;40582;53.100;6.686;2022-07-01T03:01:24;5.47;;;1.80;;
54683;SDS011;40582;53.100;6.686;2022-07-01T03:03:50;2.13;;;1.40;;
54683;SDS011;40582;53.100;6.686;2022-07-01T03:06:16;2.75;;;1.58;;
54683;SDS011;40582;53.100;6.686;2022-07-01T03:08:41;6.28;;;1.67;;
54683;SDS011;40582;53.100;6.686;2022-07-01T03:11:07;3.60;;;1.73;;
54683;SDS011;40582;53.100;6.686;2022-07-01T03:13:33;6.90;;;1.77;;
54683;SDS011;40582;53.100;6.686;2022-07-01T03:15:58;2.90;;;1.77;;
54683;SDS011;40582;53.100;6.686;2022-07-01T03:18:24;3.50;;;1.90;;
54683;SDS011;40582;53.100;6.686;2022-07-01T03:20:50;5.45;;;2.20;;
54683;SDS011;40582;53.100;6.686;2022-07-01T03:23:16;4.40;;;2.00;;
54683;SDS011;40582;53.100;6.686;2022-07-01T03:25:42;3.10;;;1.88;;
54683;SDS011;40582;53.100;6.686;2022-07-01T03:28:08;4.90;;;1.90;;
54683;SDS011;40582;53.100;6.686;2022-07-01T03:30:33;4.63;;;1.98;;
54683;SDS011;40582;53.100;6.686;2022-07-01T03:32:59;2.90;;;2.03;;
54683;SDS011;40582;53.100;6.686;2022-07-01T03:35:25;2.80;;;1.85;;
54683;SDS011;40582;53.100;6.686;2022-07-01T03:38:10;6.13;;;2.42;;
54683;SDS011;40582;53.100;6.686;2022-07-01T03:40:36;3.13;;;1.90;;
54683;SDS011;40582;53.100;6.686;2022-07-01T03:43:03;2.28;;;1.88;;
54683;SDS011;40582;53.100;6.686;2022-07-01T03:45:30;4.70;;;2.30;;
54683;SDS011;40582;53.100;6.686;2022-07-01T03:47:56;3.90;;;2.30;;
54683;SDS011;40582;53.100;6.686;2022-07-01T03:50:23;4.95;;;2.30;;
54683;SDS011;40582;53.100;6.686;2022-07-01T03:52:50;4.07;;;2.33;;
54683;SDS011;40582;53.100;6.686;2022-07-01T03:55:35;3.00;;;2.10;;
54683;SDS011;40582;53.100;6.686;2022-07-01T03:58:01;6.82;;;2.65;;
54683;SDS011;40582;53.100;6.686;2022-07-01T04:00:26;5.72;;;2.83;;
54683;SDS011;40582;53.100;6.686;2022-07-01T04:02:53;4.32;;;2.70;;
54683;SDS011;40582;53.100;6.686;2022-07-01T04:05:19;7.45;;;2.90;;
54683;SDS011;40582;53.100;6.686;2022-07-01T04:07:44;5.63;;;2.60;;
54683;SDS011;40582;53.100;6.686;2022-07-01T04:10:10;4.93;;;2.83;;
54683;SDS011;40582;53.100;6.686;2022-07-01T04:12:37;5.43;;;3.30;;
54683;SDS011;40582;53.100;6.686;2022-07-01T04:15:04;5.65;;;2.92;;
54683;SDS011;40582;53.100;6.686;2022-07-01T04:17:30;3.75;;;2.70;;
54683;SDS011;40582;53.100;6.686;2022-07-01T04:19:56;11.23;;;2.90;;
54683;SDS011;40582;53.100;6.686;2022-07-01T04:22:22;4.88;;;3.10;;
54683;SDS011;40582;53.100;6.686;2022-07-01T04:25:01;5.00;;;3.00;;
54683;SDS011;40582;53.100;6.686;2022-07-01T04:27:30;4.88;;;3.35;;
54683;SDS011;40582;53.100;6.686;2022-07-01T04:29:56;8.25;;;3.90;;
54683;SDS011;40582;53.100;6.686;2022-07-01T04:32:22;5.38;;;4.13;;
54683;SDS011;40582;53.100;6.686;2022-07-01T04:34:48;6.97;;;4.68;;
54683;SDS011;40582;53.100;6.686;2022-07-01T04:37:14;7.63;;;4.85;;
54683;SDS011;40582;53.100;6.686;2022-07-01T04:39:40;10.15;;;5.65;;
54683;SDS011;40582;53.100;6.686;2022-07-01T04:42:05;6.15;;;5.55;;
54683;SDS011;40582;53.100;6.686;2022-07-01T04:44:32;8.68;;;6.38;;
54683;SDS011;40582;53.100;6.686;2022-07-01T04:46:59;9.13;;;6.40;;
54683;SDS011;40582;53.100;6.686;2022-07-01T04:49:27;10.57;;;6.65;;
54683;SDS011;40582;53.100;6.686;2022-07-01T04:51:53;8.95;;;6.90;;
54683;SDS011;40582;53.100;6.686;2022-07-01T04:54:19;9.35;;;7.18;;
54683;SDS011;40582;53.100;6.686;2022-07-01T04:56:45;10.57;;;8.30;;
54683;SDS011;40582;53.100;6.686;2022-07-01T04:59:12;12.82;;;8.57;;
54683;SDS011;40582;53.100;6.686;2022-07-01T05:01:38;11.15;;;8.85;;
54683;SDS011;40582;53.100;6.686;2022-07-01T05:04:08;14.43;;;10.60;;
54683;SDS011;40582;53.100;6.686;2022-07-01T05:06:34;12.90;;;10.48;;
54683;SDS011;40582;53.100;6.686;2022-07-01T05:09:00;16.48;;;12.88;;
54683;SDS011;40582;53.100;6.686;2022-07-01T05:11:26;24.05;;;13.63;;
54683;SDS011;40582;53.100;6.686;2022-07-01T05:13:51;17.02;;;13.63;;
54683;SDS011;40582;53.100;6.686;2022-07-01T05:16:17;17.40;;;14.82;;
54683;SDS011;40582;53.100;6.686;2022-07-01T05:18:43;18.65;;;14.73;;
54683;SDS011;40582;53.100;6.686;2022-07-01T05:21:28;21.00;;;16.13;;
54683;SDS011;40582;53.100;6.686;2022-07-01T05:24:12;21.80;;;15.50;;
54683;SDS011;40582;53.100;6.686;2022-07-01T05:26:38;19.13;;;14.48;;
54683;SDS011;40582;53.100;6.686;2022-07-01T05:29:03;25.40;;;16.60;;
54683;SDS011;40582;53.100;6.686;2022-07-01T05:31:29;21.98;;;16.08;;
54683;SDS011;40582;53.100;6.686;2022-07-01T05:33:55;18.75;;;15.90;;
54683;SDS011;40582;53.100;6.686;2022-07-01T05:36:21;18.52;;;15.70;;
54683;SDS011;40582;53.100;6.686;2022-07-01T05:38:46;21.27;;;16.35;;
54683;SDS011;40582;53.100;6.686;2022-07-01T05:41:12;22.48;;;16.23;;
54683;SDS011;40582;53.100;6.686;2022-07-01T05:43:38;21.08;;;17.27;;
54683;SDS011;40582;53.100;6.686;2022-07-01T05:46:04;24.80;;;17.15;;
54683;SDS011;40582;53.100;6.686;2022-07-01T05:48:30;26.73;;;17.95;;
54683;SDS011;40582;53.100;6.686;2022-07-01T05:50:55;25.65;;;18.13;;
54683;SDS011;40582;53.100;6.686;2022-07-01T05:53:21;28.10;;;19.42;;
54683;SDS011;40582;53.100;6.686;2022-07-01T05:55:47;24.20;;;18.77;;
54683;SDS011;40582;53.100;6.686;2022-07-01T05:58:13;25.27;;;18.83;;
54683;SDS011;40582;53.100;6.686;2022-07-01T06:00:39;27.35;;;19.83;;
54683;SDS011;40582;53.100;6.686;2022-07-01T06:03:09;26.38;;;19.92;;
54683;SDS011;40582;53.100;6.686;2022-07-01T06:05:35;26.08;;;21.67;;
54683;SDS011;40582;53.100;6.686;2022-07-01T06:08:01;25.25;;;21.17;;
54683;SDS011;40582;53.100;6.686;2022-07-01T06:10:28;27.15;;;21.73;;
54683;SDS011;40582;53.100;6.686;2022-07-01T06:12:53;24.13;;;20.92;;
54683;SDS011;40582;53.100;6.686;2022-07-01T06:15:19;26.52;;;21.35;;
54683;SDS011;40582;53.100;6.686;2022-07-01T06:17:45;26.23;;;21.35;;
54683;SDS011;40582;53.100;6.686;2022-07-01T06:20:11;25.80;;;21.80;;
54683;SDS011;40582;53.100;6.686;2022-07-01T06:22:36;25.00;;;21.20;;
54683;SDS011;40582;53.100;6.686;2022-07-01T06:25:02;25.33;;;21.58;;
54683;SDS011;40582;53.100;6.686;2022-07-01T06:27:28;31.58;;;21.67;;
54683;SDS011;40582;53.100;6.686;2022-07-01T06:29:54;27.25;;;21.80;;
54683;SDS011;40582;53.100;6.686;2022-07-01T06:32:20;28.17;;;20.67;;
54683;SDS011;40582;53.100;6.686;2022-07-01T06:34:46;25.95;;;21.90;;
54683;SDS011;40582;53.100;6.686;2022-07-01T06:37:13;24.83;;;20.23;;
54683;SDS011;40582;53.100;6.686;2022-07-01T06:39:38;31.52;;;21.67;;
54683;SDS011;40582;53.100;6.686;2022-07-01T06:42:04;26.38;;;21.35;;
54683;SDS011;40582;53.100;6.686;2022-07-01T06:44:30;26.65;;;21.27;;
54683;SDS011;40582;53.100;6.686;2022-07-01T06:46:56;27.00;;;20.45;;
54683;SDS011;40582;53.100;6.686;2022-07-01T06:49:22;24.20;;;19.90;;
54683;SDS011;40582;53.100;6.686;2022-07-01T06:51:47;28.33;;;20.98;;
54683;SDS011;40582;53.100;6.686;2022-07-01T06:54:13;25.83;;;20.67;;
54683;SDS011;40582;53.100;6.686;2022-07-01T06:56:39;24.48;;;19.95;;
54683;SDS011;40582;53.100;6.686;2022-07-01T06:59:05;24.60;;;19.92;;
54683;SDS011;40582;53.100;6.686;2022-07-01T07:01:30;28.48;;;19.63;;
54683;SDS011;40582;53.100;6.686;2022-07-01T07:03:56;21.95;;;19.65;;
54683;SDS011;40582;53.100;6.686;2022-07-01T07:06:22;25.23;;;19.63;;
54683;SDS011;40582;53.100;6.686;2022-07-01T07:08:48;27.88;;;19.05;;
54683;SDS011;40582;53.100;6.686;2022-07-01T07:11:13;24.05;;;19.48;;
54683;SDS011;40582;53.100;6.686;2022-07-01T07:13:40;25.08;;;20.17;;
54683;SDS011;40582;53.100;6.686;2022-07-01T07:16:09;24.95;;;19.23;;
54683;SDS011;40582;53.100;6.686;2022-07-01T07:18:34;27.13;;;18.55;;
54683;SDS011;40582;53.100;6.686;2022-07-01T07:21:00;26.00;;;18.52;;
54683;SDS011;40582;53.100;6.686;2022-07-01T07:23:27;23.35;;;17.60;;
54683;SDS011;40582;53.100;6.686;2022-07-01T07:25:53;22.63;;;17.65;;
54683;SDS011;40582;53.100;6.686;2022-07-01T07:28:18;21.55;;;17.45;;
54683;SDS011;40582;53.100;6.686;2022-07-01T07:30:44;21.77;;;17.52;;
54683;SDS011;40582;53.100;6.686;2022-07-01T07:33:09;22.38;;;17.83;;
54683;SDS011;40582;53.100;6.686;2022-07-01T07:35:35;23.13;;;18.20;;
54683;SDS011;40582;53.100;6.686;2022-07-01T07:38:01;22.95;;;17.17;;
54683;SDS011;40582;53.100;6.686;2022-07-01T07:40:26;19.95;;;17.30;;
54683;SDS011;40582;53.100;6.686;2022-07-01T07:42:53;21.27;;;17.52;;
54683;SDS011;40582;53.100;6.686;2022-07-01T07:45:18;20.42;;;17.65;;
54683;SDS011;40582;53.100;6.686;2022-07-01T07:47:45;25.60;;;18.23;;
54683;SDS011;40582;53.100;6.686;2022-07-01T07:50:13;23.10;;;17.67;;
54683;SDS011;40582;53.100;6.686;2022-07-01T07:52:40;23.88;;;17.60;;
54683;SDS011;40582;53.100;6.686;2022-07-01T07:55:06;20.05;;;17.38;;
54683;SDS011;40582;53.100;6.686;2022-07-01T07:57:35;23.08;;;16.23;;
54683;SDS011;40582;53.100;6.686;2022-07-01T08:00:01;20.95;;;16.40;;
54683;SDS011;40582;53.100;6.686;2022-07-01T08:02:28;27.73;;;17.95;;
54683;SDS011;40582;53.100;6.686;2022-07-01T08:04:54;22.42;;;16.48;;
54683;SDS011;40582;53.100;6.686;2022-07-01T08:07:20;18.58;;;16.42;;
54683;SDS011;40582;53.100;6.686;2022-07-01T08:09:46;20.45;;;15.77;;
54683;SDS011;40582;53.100;6.686;2022-07-01T08:12:14;21.40;;;16.40;;
54683;SDS011;40582;53.100;6.686;2022-07-01T08:14:40;19.85;;;14.93;;
54683;SDS011;40582;53.100;6.686;2022-07-01T08:17:06;22.17;;;13.82;;
54683;SDS011;40582;53.100;6.686;2022-07-01T08:19:32;19.40;;;13.90;;
54683;SDS011;40582;53.100;6.686;2022-07-01T08:21:57;16.95;;;14.43;;
54683;SDS011;40582;53.100;6.686;2022-07-01T08:24:23;17.45;;;13.07;;
54683;SDS011;40582;53.100;6.686;2022-07-01T08:26:49;16.13;;;12.05;;
54683;SDS011;40582;53.100;6.686;2022-07-01T08:29:14;17.40;;;12.25;;
54683;SDS011;40582;53.100;6.686;2022-07-01T08:31:40;17.27;;;12.73;;
54683;SDS011;40582;53.100;6.686;2022-07-01T08:34:06;17.83;;;12.27;;
54683;SDS011;40582;53.100;6.686;2022-07-01T08:36:32;21.90;;;12.43;;
54683;SDS011;40582;53.100;6.686;2022-07-01T08:38:58;18.60;;;12.50;;
54683;SDS011;40582;53.100;6.686;2022-07-01T08:41:24;21.15;;;11.40;;
54683;SDS011;40582;53.100;6.686;2022-07-01T08:43:50;17.10;;;11.05;;
54683;SDS011;40582;53.100;6.686;2022-07-01T08:46:15;17.38;;;10.07;;
54683;SDS011;40582;53.100;6.686;2022-07-01T08:48:42;11.05;;;9.43;;
54683;SDS011;40582;53.100;6.686;2022-07-01T08:51:09;13.80;;;9.23;;
54683;SDS011;40582;53.100;6.686;2022-07-01T08:53:34;13.32;;;7.22;;
54683;SDS011;40582;53.100;6.686;2022-07-01T08:56:01;14.05;;;6.50;;
54683;SDS011;40582;53.100;6.686;2022-07-01T08:58:47;11.27;;;6.68;;
54683;SDS011;40582;53.100;6.686;2022-07-01T09:03:39;12.98;;;7.13;;
54683;SDS011;40582;53.100;6.686;2022-07-01T09:06:10;12.40;;;5.70;;
54683;SDS011;40582;53.100;6.686;2022-07-01T09:08:47;9.27;;;5.50;;
54683;SDS011;40582;53.100;6.686;2022-07-01T09:11:24;15.35;;;6.35;;
54683;SDS011;40582;53.100;6.686;2022-07-01T09:14:10;11.40;;;5.07;;
54683;SDS011;40582;53.100;6.686;2022-07-01T09:19:26;16.63;;;5.88;;
54683;SDS011;40582;53.100;6.686;2022-07-01T09:21:57;13.23;;;5.55;;
54683;SDS011;40582;53.100;6.686;2022-07-01T09:26:59;8.60;;;4.40;;
54683;SDS011;40582;53.100;6.686;2022-07-01T09:29:36;13.02;;;4.50;;
54683;SDS011;40582;53.100;6.686;2022-07-01T09:32:04;8.50;;;3.92;;
54683;SDS011;40582;53.100;6.686;2022-07-01T09:34:47;9.98;;;3.72;;
54683;SDS011;40582;53.100;6.686;2022-07-01T09:37:15;10.18;;;3.90;;
54683;SDS011;40582;53.100;6.686;2022-07-01T09:39:43;11.13;;;4.40;;
54683;SDS011;40582;53.100;6.686;2022-07-01T09:42:16;8.80;;;4.00;;
54683;SDS011;40582;53.100;6.686;2022-07-01T09:45:00;13.73;;;4.55;;
54683;SDS011;40582;53.100;6.686;2022-07-01T09:47:31;10.02;;;4.20;;
54683;SDS011;40582;53.100;6.686;2022-07-01T09:49:58;8.77;;;4.30;;
54683;SDS011;40582;53.100;6.686;2022-07-01T09:52:24;10.23;;;4.72;;
54683;SDS011;40582;53.100;6.686;2022-07-01T09:54:50;8.75;;;4.70;;
54683;SDS011;40582;53.100;6.686;2022-07-01T09:57:16;10.30;;;4.97;;
54683;SDS011;40582;53.100;6.686;2022-07-01T09:59:43;12.07;;;3.80;;
54683;SDS011;40582;53.100;6.686;2022-07-01T10:02:10;10.68;;;3.90;;
54683;SDS011;40582;53.100;6.686;2022-07-01T10:04:38;13.55;;;3.90;;
54683;SDS011;40582;53.100;6.686;2022-07-01T10:13:14;7.05;;;3.40;;
54683;SDS011;40582;53.100;6.686;2022-07-01T10:15:42;13.65;;;4.07;;
54683;SDS011;40582;53.100;6.686;2022-07-01T10:18:20;7.70;;;3.30;;
54683;SDS011;40582;53.100;6.686;2022-07-01T10:20:50;9.70;;;4.00;;
54683;SDS011;40582;53.100;6.686;2022-07-01T10:23:19;8.57;;;3.50;;
54683;SDS011;40582;53.100;6.686;2022-07-01T10:25:53;9.85;;;3.53;;
54683;SDS011;40582;53.100;6.686;2022-07-01T10:31:08;11.25;;;4.00;;
54683;SDS011;40582;53.100;6.686;2022-07-01T10:41:26;6.40;;;3.00;;
54683;SDS011;40582;53.100;6.686;2022-07-01T10:43:53;6.63;;;3.10;;
54683;SDS011;40582;53.100;6.686;2022-07-01T10:46:36;10.90;;;3.97;;
54683;SDS011;40582;53.100;6.686;2022-07-01T10:49:15;11.65;;;4.32;;
54683;SDS011;40582;53.100;6.686;2022-07-01T10:51:48;11.55;;;4.60;;
54683;SDS011;40582;53.100;6.686;2022-07-01T10:59:48;9.88;;;3.25;;
54683;SDS011;40582;53.100;6.686;2022-07-01T11:04:49;14.77;;;3.30;;
54683;SDS011;40582;53.100;6.686;2022-07-01T11:07:17;8.00;;;2.70;;
54683;SDS011;40582;53.100;6.686;2022-07-01T11:09:43;5.78;;;2.60;;
54683;SDS011;40582;53.100;6.686;2022-07-01T11:12:08;6.30;;;2.50;;
54683;SDS011;40582;53.100;6.686;2022-07-01T11:14:37;9.02;;;2.75;;
54683;SDS011;40582;53.100;6.686;2022-07-01T11:17:06;5.60;;;2.65;;
54683;SDS011;40582;53.100;6.686;2022-07-01T11:19:33;7.43;;;2.90;;
54683;SDS011;40582;53.100;6.686;2022-07-01T11:21:59;7.07;;;2.53;;
54683;SDS011;40582;53.100;6.686;2022-07-01T11:24:25;8.65;;;2.70;;
54683;SDS011;40582;53.100;6.686;2022-07-01T11:26:54;8.77;;;2.97;;
54683;SDS011;40582;53.100;6.686;2022-07-01T11:29:25;7.70;;;2.95;;
54683;SDS011;40582;53.100;6.686;2022-07-01T11:31:53;9.20;;;2.60;;
54683;SDS011;40582;53.100;6.686;2022-07-01T11:34:19;8.02;;;2.70;;
54683;SDS011;40582;53.100;6.686;2022-07-01T11:36:45;7.20;;;2.78;;
54683;SDS011;40582;53.100;6.686;2022-07-01T11:39:34;6.72;;;1.80;;
54683;SDS011;40582;53.100;6.686;2022-07-01T11:42:05;6.53;;;1.27;;
54683;SDS011;40582;53.100;6.686;2022-07-01T11:46:57;9.85;;;1.40;;
54683;SDS011;40582;53.100;6.686;2022-07-01T11:49:24;6.03;;;1.30;;
54683;SDS011;40582;53.100;6.686;2022-07-01T11:52:00;5.57;;;1.30;;
54683;SDS011;40582;53.100;6.686;2022-07-01T11:54:27;5.93;;;1.33;;
54683;SDS011;40582;53.100;6.686;2022-07-01T11:56:53;12.32;;;1.73;;
54683;SDS011;40582;53.100;6.686;2022-07-01T11:59:20;7.88;;;1.58;;
54683;SDS011;40582;53.100;6.686;2022-07-01T12:01:52;4.30;;;1.50;;
54683;SDS011;40582;53.100;6.686;2022-07-01T12:04:19;7.07;;;1.48;;
54683;SDS011;40582;53.100;6.686;2022-07-01T12:06:46;6.50;;;1.42;;
54683;SDS011;40582;53.100;6.686;2022-07-01T12:09:16;6.53;;;1.80;;
54683;SDS011;40582;53.100;6.686;2022-07-01T12:11:43;9.73;;;1.90;;
54683;SDS011;40582;53.100;6.686;2022-07-01T12:14:10;5.53;;;1.92;;
54683;SDS011;40582;53.100;6.686;2022-07-01T12:16:40;5.18;;;1.70;;
54683;SDS011;40582;53.100;6.686;2022-07-01T12:19:06;10.10;;;1.50;;
54683;SDS011;40582;53.100;6.686;2022-07-01T12:21:46;6.93;;;1.85;;
54683;SDS011;40582;53.100;6.686;2022-07-01T12:24:20;4.22;;;1.38;;
54683;SDS011;40582;53.100;6.686;2022-07-01T12:29:19;5.40;;;1.60;;
54683;SDS011;40582;53.100;6.686;2022-07-01T12:34:42;11.60;;;2.25;;
54683;SDS011;40582;53.100;6.686;2022-07-01T12:39:44;4.47;;;1.15;;
54683;SDS011;40582;53.100;6.686;2022-07-01T12:44:55;11.68;;;1.10;;
54683;SDS011;40582;53.100;6.686;2022-07-01T12:50:12;3.88;;;1.30;;
54683;SDS011;40582;53.100;6.686;2022-07-01T12:52:41;8.23;;;1.35;;
54683;SDS011;40582;53.100;6.686;2022-07-01T12:55:31;12.95;;;1.38;;
54683;SDS011;40582;53.100;6.686;2022-07-01T12:57:59;5.32;;;1.42;;
54683;SDS011;40582;53.100;6.686;2022-07-01T13:00:26;5.85;;;1.05;;
54683;SDS011;40582;53.100;6.686;2022-07-01T13:02:54;4.57;;;1.10;;
54683;SDS011;40582;53.100;6.686;2022-07-01T13:05:21;2.78;;;0.90;;
54683;SDS011;40582;53.100;6.686;2022-07-01T13:07:48;6.20;;;1.40;;
54683;SDS011;40582;53.100;6.686;2022-07-01T13:10:15;3.33;;;1.10;;
54683;SDS011;40582;53.100;6.686;2022-07-01T13:12:41;4.65;;;1.15;;
54683;SDS011;40582;53.100;6.686;2022-07-01T13:15:11;1.67;;;0.65;;
54683;SDS011;40582;53.100;6.686;2022-07-01T13:17:38;2.78;;;1.05;;
54683;SDS011;40582;53.100;6.686;2022-07-01T13:20:04;5.47;;;1.23;;
54683;SDS011;40582;53.100;6.686;2022-07-01T13:22:31;4.03;;;0.80;;
54683;SDS011;40582;53.100;6.686;2022-07-01T13:24:57;4.53;;;1.02;;
54683;SDS011;40582;53.100;6.686;2022-07-01T13:27:22;10.35;;;1.30;;
54683;SDS011;40582;53.100;6.686;2022-07-01T13:29:48;3.95;;;1.30;;
54683;SDS011;40582;53.100;6.686;2022-07-01T13:32:14;3.75;;;1.10;;
54683;SDS011;40582;53.100;6.686;2022-07-01T13:34:40;3.83;;;0.85;;
54683;SDS011;40582;53.100;6.686;2022-07-01T13:37:06;2.33;;;0.80;;
54683;SDS011;40582;53.100;6.686;2022-07-01T13:39:32;4.28;;;1.30;;
54683;SDS011;40582;53.100;6.686;2022-07-01T13:41:58;6.15;;;0.93;;
54683;SDS011;40582;53.100;6.686;2022-07-01T13:44:24;4.93;;;1.38;;
54683;SDS011;40582;53.100;6.686;2022-07-01T13:46:49;7.18;;;1.38;;
54683;SDS011;40582;53.100;6.686;2022-07-01T13:49:15;7.38;;;1.15;;
54683;SDS011;40582;53.100;6.686;2022-07-01T13:51:42;5.78;;;1.83;;
54683;SDS011;40582;53.100;6.686;2022-07-01T13:54:08;5.72;;;1.30;;
54683;SDS011;40582;53.100;6.686;2022-07-01T13:56:34;4.22;;;1.17;;
54683;SDS011;40582;53.100;6.686;2022-07-01T13:58:59;4.32;;;1.30;;
54683;SDS011;40582;53.100;6.686;2022-07-01T14:01:25;5.30;;;1.13;;
54683;SDS011;40582;53.100;6.686;2022-07-01T14:03:51;4.40;;;1.10;;
54683;SDS011;40582;53.100;6.686;2022-07-01T14:06:18;4.13;;;1.40;;
54683;SDS011;40582;53.100;6.686;2022-07-01T14:08:44;4.90;;;1.15;;
54683;SDS011;40582;53.100;6.686;2022-07-01T14:11:10;5.25;;;1.30;;
54683;SDS011;40582;53.100;6.686;2022-07-01T14:13:36;6.07;;;1.42;;
54683;SDS011;40582;53.100;6.686;2022-07-01T14:16:04;9.65;;;1.55;;
54683;SDS011;40582;53.100;6.686;2022-07-01T14:18:33;6.68;;;1.30;;
54683;SDS011;40582;53.100;6.686;2022-07-01T14:20:59;6.13;;;1.58;;
54683;SDS011;40582;53.100;6.686;2022-07-01T14:23:25;3.60;;;1.10;;
54683;SDS011;40582;53.100;6.686;2022-07-01T14:25:51;6.32;;;1.50;;
54683;SDS011;40582;53.100;6.686;2022-07-01T14:28:17;9.13;;;1.77;;
54683;SDS011;40582;53.100;6.686;2022-07-01T14:30:43;5.22;;;1.73;;
54683;SDS011;40582;53.100;6.686;2022-07-01T14:33:09;5.18;;;1.52;;
54683;SDS011;40582;53.100;6.686;2022-07-01T14:35:35;5.70;;;1.30;;
54683;SDS011;40582;53.100;6.686;2022-07-01T14:38:00;6.40;;;1.40;;
54683;SDS011;40582;53.100;6.686;2022-07-01T14:40:26;7.22;;;1.60;;
54683;SDS011;40582;53.100;6.686;2022-07-01T14:42:52;6.82;;;1.60;;
54683;SDS011;40582;53.100;6.686;2022-07-01T14:45:18;6.43;;;1.63;;
54683;SDS011;40582;53.100;6.686;2022-07-01T14:47:44;4.28;;;1.50;;
54683;SDS011;40582;53.100;6.686;2022-07-01T14:50:10;6.25;;;1.60;;
54683;SDS011;40582;53.100;6.686;2022-07-01T14:52:36;5.88;;;1.33;;
54683;SDS011;40582;53.100;6.686;2022-07-01T14:55:03;6.25;;;1.70;;
54683;SDS011;40582;53.100;6.686;2022-07-01T14:57:29;5.00;;;1.42;;
54683;SDS011;40582;53.100;6.686;2022-07-01T14:59:55;7.05;;;1.50;;
54683;SDS011;40582;53.100;6.686;2022-07-01T15:02:22;6.68;;;1.50;;
54683;SDS011;40582;53.100;6.686;2022-07-01T15:04:48;4.63;;;1.58;;
54683;SDS011;40582;53.100;6.686;2022-07-01T15:07:14;5.53;;;1.50;;
54683;SDS011;40582;53.100;6.686;2022-07-01T15:09:40;6.75;;;1.80;;
54683;SDS011;40582;53.100;6.686;2022-07-01T15:12:06;7.63;;;1.92;;
54683;SDS011;40582;53.100;6.686;2022-07-01T15:14:32;4.05;;;1.42;;
54683;SDS011;40582;53.100;6.686;2022-07-01T15:16:58;8.35;;;1.73;;
54683;SDS011;40582;53.100;6.686;2022-07-01T15:19:24;5.60;;;1.48;;
54683;SDS011;40582;53.100;6.686;2022-07-01T15:21:51;11.90;;;1.70;;
54683;SDS011;40582;53.100;6.686;2022-07-01T15:24:18;6.32;;;2.13;;
54683;SDS011;40582;53.100;6.686;2022-07-01T15:26:43;8.77;;;1.77;;